Terminal Aerodrome Forecast
Issued by NWS Pueblo, CO

Home | Current Version | Previous Version | Text Only | Print | Product List | Glossary On
Versions: 1 2 3 4 5 6 7 8 9 10 11 12 13 14 15 16 17 18 19 20 21
000
FTUS45 KPUB 250027 AAA
TAFPUB
TAF AMD
KPUB 250027Z 2500/2524 21012G22KT P6SM BKN140
     FM250200 27010KT P6SM BKN140
     FM250600 34008KT P6SM SCT140
     FM251100 VRB04KT P6SM FEW140
     FM251900 18013KT P6SM SCT120 SCT200=

USA.gov is the U.S. government's official web portal to all federal, state and local government web resources and services.